LSMA Airport Information

Runway Information
Runway 01 Length 4920 ft width 130 ft
Elevation 1460 ft Threshold 0 ft Heading 11
Runway 19 Length 4920 ft Width 130 ft
Elevation 1425 ft Threshold 0 ft Heading 191
Airport Frequencies
Type ARR Name ARR/DEP Frequency 33.787 MHZ
Type ARR Name ARR/DEP Frequency 139.45 MHZ
Type INFO Name INFO Frequency 138.05 MHZ
Type TWR Name TWR Frequency 119.625 MHZ
Airport Navaids
Airport Weather Information & NOTAM
ADDS - METARS form results

(0145 UTC 19 January 2018)
 
METAR text: LSMA 190050Z AUTO 21014KT 9999NDV -SHRA SCT073 BKN100 13/01 Q1007 RMK
Conditions at: LSMA (ALPNACH , CH) observed 0050 UTC 19 January 2018
Temperature: 13.0°C (55°F)
Dewpoint: 1.0°C (34°F) [RH = 44%]
Pressure (altimeter): 29.73 inches Hg (1007.0 mb)
Winds: from the SSW (210 degrees) at 16 MPH (14 knots; 7.3 m/s)
Visibility: missing
Ceiling: 10000 feet AGL
Clouds: scattered clouds at 7300 feet AGL
broken clouds at 10000 feet AGL
Weather: -SHRA  (light rain showers)